createdAt,value
2018-09-18T00:04:27.445Z,6.82
2018-09-18T00:10:22.425Z,6.65
2018-09-18T00:16:17.452Z,6.9
2018-09-18T00:22:12.453Z,6.65
2018-09-18T00:28:07.506Z,6.43
2018-09-18T00:34:02.428Z,6.95
2018-09-18T00:39:57.419Z,6.91
2018-09-18T00:45:52.445Z,7.14
2018-09-18T00:51:47.501Z,6.44
2018-09-18T00:57:42.428Z,7.08
2018-09-18T01:03:37.440Z,6.93
2018-09-18T01:09:32.453Z,6.22
2018-09-18T01:15:27.473Z,7.04
2018-09-18T01:21:22.460Z,6.99
2018-09-18T01:27:17.462Z,7.2
2018-09-18T01:33:12.506Z,6.78
2018-09-18T01:39:07.480Z,6.92
2018-09-18T01:45:02.797Z,6.81
2018-09-18T01:50:57.492Z,6.5
2018-09-18T01:56:52.493Z,6.15
2018-09-18T02:02:47.511Z,6.28
2018-09-18T02:08:42.552Z,6.52
2018-09-18T02:14:37.492Z,7.3
2018-09-18T02:20:32.567Z,6.82
2018-09-18T02:26:27.504Z,6.8
2018-09-18T02:32:22.597Z,6.69
2018-09-18T02:38:17.554Z,6.68
2018-09-18T02:44:12.517Z,6.5
2018-09-18T02:50:07.541Z,6.37
2018-09-18T02:56:02.542Z,7.11
2018-09-18T03:01:57.570Z,6.68
2018-09-18T03:07:52.547Z,6.8
2018-09-18T03:13:47.565Z,7.13
2018-09-18T03:19:42.572Z,7.47
2018-09-18T03:25:37.583Z,6.86
2018-09-18T03:31:32.561Z,7.24
2018-09-18T03:37:27.559Z,7.34
2018-09-18T03:43:22.641Z,6.83
2018-09-18T03:49:17.619Z,6.98
2018-09-18T03:55:12.646Z,7.79
2018-09-18T04:01:07.569Z,7.54
2018-09-18T04:07:02.583Z,7.47
2018-09-18T04:12:57.590Z,7.45
2018-09-18T04:18:52.588Z,7.07
2018-09-18T04:24:47.670Z,7.85
2018-09-18T04:30:42.603Z,7.03
2018-09-18T04:36:37.608Z,6.86
2018-09-18T04:42:32.611Z,7.24
2018-09-18T04:48:27.590Z,5.92
2018-09-18T04:54:22.629Z,6.49
2018-09-18T05:00:17.623Z,6.9
2018-09-18T05:06:12.634Z,6.01
2018-09-18T05:12:07.607Z,6.36
2018-09-18T05:18:02.640Z,6.84
2018-09-18T05:23:57.636Z,8.33
2018-09-18T05:29:52.636Z,8.23
2018-09-18T05:35:47.650Z,7.47
2018-09-18T05:41:42.637Z,8.91
2018-09-18T05:47:37.710Z,8.2
2018-09-18T05:53:32.677Z,8.49
2018-09-18T05:59:27.654Z,8.39
2018-09-18T06:05:22.666Z,8.93
2018-09-18T06:11:17.674Z,9.18
2018-09-18T06:17:12.685Z,11.36
2018-09-18T06:23:07.684Z,13.99
2018-09-18T06:29:02.742Z,12.4
2018-09-18T06:34:57.708Z,14.84
2018-09-18T06:40:52.694Z,17.34
2018-09-18T06:46:47.714Z,17.61
2018-09-18T06:52:42.718Z,11.69
2018-09-18T06:58:37.733Z,11.77
2018-09-18T07:04:32.768Z,13.32
2018-09-18T07:10:27.756Z,12.24
2018-09-18T07:16:22.711Z,10.91
2018-09-18T07:22:17.723Z,11.53
2018-09-18T07:28:12.865Z,9.13
2018-09-18T07:34:07.737Z,9.11
2018-09-18T07:40:02.747Z,8.3
2018-09-18T07:45:57.749Z,8.66
2018-09-18T07:51:52.776Z,8.53
2018-09-18T07:57:47.739Z,8.66
2018-09-18T08:03:42.756Z,7.87
2018-09-18T08:09:37.785Z,8.04
2018-09-18T08:15:32.779Z,7.15
2018-09-18T08:21:27.793Z,8.12
2018-09-18T08:27:22.769Z,8.56
2018-09-18T08:33:17.790Z,7.7
2018-09-18T08:39:13.277Z,7.83
2018-09-18T08:45:07.875Z,8.01
2018-09-18T08:51:02.893Z,8.65
2018-09-18T08:56:57.801Z,9.32
2018-09-18T09:02:52.856Z,8.99
2018-09-18T09:08:47.922Z,7.5
2018-09-18T09:14:42.907Z,8.65
2018-09-18T09:20:37.828Z,7.89
2018-09-18T09:26:32.881Z,5.17
2018-09-18T09:32:27.855Z,4.93
2018-09-18T09:38:22.871Z,5.07
2018-09-18T09:44:17.848Z,5.27
2018-09-18T09:50:12.860Z,5.04
2018-09-18T09:56:07.883Z,4.73
2018-09-18T10:02:02.899Z,3.83
2018-09-18T10:07:57.859Z,4.54
2018-09-18T10:13:52.875Z,3.87
2018-09-18T10:19:47.953Z,4.65
2018-09-18T10:25:42.906Z,4.44
2018-09-18T10:31:37.893Z,4.44
2018-09-18T10:37:32.888Z,3.82
2018-09-18T10:43:27.952Z,3.96
2018-09-18T10:49:22.995Z,3.51
2018-09-18T10:55:17.946Z,3.74
2018-09-18T11:01:12.949Z,3.51
2018-09-18T11:07:08.033Z,3.83
2018-09-18T11:13:02.954Z,3.91
2018-09-18T11:18:57.954Z,3.49
2018-09-18T11:24:53.008Z,3.52
2018-09-18T11:30:48.000Z,3.97
2018-09-18T11:36:42.969Z,3.85
2018-09-18T11:42:37.949Z,4.06
2018-09-18T11:48:32.975Z,4.49
2018-09-18T11:54:27.964Z,3.64
2018-09-18T12:00:23.010Z,3.28
2018-09-18T12:06:17.989Z,4
2018-09-18T12:12:12.996Z,4.53
2018-09-18T12:18:08.009Z,4.14
2018-09-18T12:24:03.019Z,3.41
2018-09-18T12:29:58.006Z,3.47
2018-09-18T12:35:53.096Z,3.48
2018-09-18T12:41:48.125Z,4.17
2018-09-18T12:47:43.006Z,4.69
2018-09-18T12:53:38.105Z,4.46
2018-09-18T12:59:33.128Z,4.27
2018-09-18T13:05:28.044Z,4.05
2018-09-18T13:11:23.056Z,3.8
2018-09-18T13:17:18.081Z,3.57
2018-09-18T13:23:13.042Z,4.49
2018-09-18T13:29:08.055Z,4.04
2018-09-18T13:35:03.267Z,4.17
2018-09-18T13:40:58.181Z,4.19
2018-09-18T13:46:53.066Z,3.7
2018-09-18T13:52:48.096Z,3.61
2018-09-18T13:58:43.076Z,3.82
2018-09-18T14:04:38.075Z,2.99
2018-09-18T14:10:33.083Z,3.58
2018-09-18T14:16:28.073Z,3.69
2018-09-18T14:22:23.093Z,4
2018-09-18T14:28:18.094Z,3.65
2018-09-18T14:34:13.097Z,4.11
2018-09-18T14:40:08.120Z,4.55
2018-09-18T14:46:03.095Z,3.11
2018-09-18T14:51:58.124Z,3.7
2018-09-18T14:57:53.122Z,3.52
2018-09-18T15:03:48.149Z,3.87
2018-09-18T15:09:43.120Z,4.73
2018-09-18T15:15:38.218Z,5
2018-09-18T15:21:33.186Z,5.15
2018-09-18T15:27:28.200Z,4.61
2018-09-18T15:33:23.191Z,4.64
2018-09-18T15:39:18.151Z,5.19
2018-09-18T15:45:13.173Z,5.5
2018-09-18T15:51:08.167Z,5
2018-09-18T15:57:03.162Z,5.83
2018-09-18T16:02:58.207Z,5.4
2018-09-18T16:08:53.177Z,5.38
2018-09-18T16:14:48.261Z,5.57
2018-09-18T16:20:43.215Z,6.03
2018-09-18T16:26:38.257Z,4.03
2018-09-18T16:32:33.203Z,3.9
2018-09-18T16:38:28.213Z,3.9
2018-09-18T16:44:23.218Z,4.08
2018-09-18T16:50:18.239Z,3.87
2018-09-18T16:56:13.233Z,3.42
2018-09-18T17:02:08.264Z,3.11
2018-09-18T17:08:03.263Z,3.28
2018-09-18T17:13:58.253Z,3.03
2018-09-18T17:19:53.251Z,3.17
2018-09-18T17:25:48.247Z,3.85
2018-09-18T17:31:43.261Z,3.9
2018-09-18T17:37:38.279Z,3.79
2018-09-18T17:43:33.248Z,3.77
2018-09-18T17:49:28.270Z,3.64
2018-09-18T17:55:23.322Z,3.95
2018-09-18T18:01:18.272Z,3.49
2018-09-18T18:07:13.297Z,3.48
2018-09-18T18:13:08.281Z,3.9
2018-09-18T18:19:03.291Z,3.61
2018-09-18T18:24:58.295Z,3.6
2018-09-18T18:30:53.288Z,4.78
2018-09-18T18:36:48.352Z,4.93
2018-09-18T18:42:43.359Z,4.67
2018-09-18T18:48:38.384Z,4.62
2018-09-18T18:54:33.360Z,5.57
2018-09-18T19:00:28.478Z,4.57
2018-09-18T19:06:23.479Z,4.94
2018-09-18T19:12:18.417Z,4.92
2018-09-18T19:18:13.388Z,4.97
2018-09-18T19:24:08.395Z,5.04
2018-09-18T19:30:03.496Z,4.66
2018-09-18T19:35:58.370Z,5.71
2018-09-18T19:41:53.368Z,5.12
2018-09-18T19:47:48.358Z,5.12
2018-09-18T19:53:43.375Z,5.15
2018-09-18T19:59:38.389Z,5.71
2018-09-18T20:05:33.379Z,5.68
2018-09-18T20:11:28.401Z,5.65
2018-09-18T20:17:23.380Z,5.5
2018-09-18T20:23:18.380Z,5.56
2018-09-18T20:29:13.440Z,5.51
2018-09-18T20:35:08.453Z,5.55
2018-09-18T20:41:03.430Z,5.2
2018-09-18T20:46:58.408Z,5.53
2018-09-18T20:52:53.411Z,6.93
2018-09-18T20:58:48.469Z,5.74
2018-09-18T21:04:43.429Z,6.32
2018-09-18T21:10:38.519Z,6.07
2018-09-18T21:16:33.461Z,5.82
2018-09-18T21:22:28.438Z,5.85
2018-09-18T21:28:23.472Z,5.53
2018-09-18T21:34:18.466Z,5.81
2018-09-18T21:40:13.501Z,6.42
2018-09-18T21:46:08.477Z,6.18
2018-09-18T21:52:03.481Z,6.27
2018-09-18T21:57:58.481Z,6.02
2018-09-18T22:03:53.506Z,6.56
2018-09-18T22:09:48.507Z,6.09
2018-09-18T22:15:43.536Z,5.87
2018-09-18T22:21:38.518Z,6.55
2018-09-18T22:27:33.525Z,5.72
2018-09-18T22:33:28.500Z,5.95
2018-09-18T22:39:23.488Z,6.82
2018-09-18T22:45:18.512Z,6.79
2018-09-18T22:51:13.503Z,6.64
2018-09-18T22:57:08.524Z,6.34
2018-09-18T23:03:03.546Z,6.45
2018-09-18T23:08:58.526Z,6.29
2018-09-18T23:14:53.557Z,7.13
2018-09-18T23:20:48.541Z,5.6
2018-09-18T23:26:43.538Z,6.38
2018-09-18T23:32:38.553Z,6.53
2018-09-18T23:38:33.535Z,6.21
2018-09-18T23:44:28.554Z,6.37
2018-09-18T23:50:23.572Z,6.91
2018-09-18T23:56:18.548Z,6.34
